Time;durP1;ratioP1;P1;durP2;ratioP2;P2;SDS_P1;SDS_P2;PMS_P1;PMS_P2;Temp;Humidity;BMP_temperature;BMP_pressure;BME280_temperature;BME280_humidity;BME280_pressure;Samples;Min_cycle;Max_cycle;Signal;HPM_P1;HPM_P2
2022/03/24 00:00:09;;;;;;;15.48;8.00;;;2.00;99.90;;;;;;4951992;28;20902;-84
2022/03/24 00:02:40;;;;;;;14.13;8.20;;;1.90;99.90;;;;;;4935955;29;20471;-85
2022/03/24 00:05:11;;;;;;;15.93;8.73;;;2.00;99.90;;;;;;4921806;29;20416;-85
2022/03/24 00:07:39;;;;;;;14.25;7.60;;;2.10;99.90;;;;;;4954718;29;20400;-85
2022/03/24 00:10:07;;;;;;;13.82;7.78;;;2.20;99.90;;;;;;4937908;29;20954;-84
2022/03/24 00:12:36;;;;;;;15.27;8.65;;;2.10;99.90;;;;;;4938942;29;20401;-84
2022/03/24 00:15:05;;;;;;;15.85;8.23;;;2.20;99.90;;;;;;4954760;29;20451;-84
2022/03/24 00:17:33;;;;;;;12.52;7.68;;;2.00;99.90;;;;;;4950411;29;20419;-84
2022/03/24 00:20:02;;;;;;;14.80;7.87;;;1.90;99.90;;;;;;4954355;28;20451;-84
2022/03/24 00:22:30;;;;;;;14.30;8.17;;;1.90;99.90;;;;;;4938828;29;20763;-84
2022/03/24 00:24:58;;;;;;;14.18;8.07;;;1.90;99.90;;;;;;4955935;28;20392;-84
2022/03/24 00:27:27;;;;;;;13.43;7.50;;;1.80;99.90;;;;;;4954758;29;20408;-84
2022/03/24 00:29:54;;;;;;;12.52;7.85;;;1.80;99.90;;;;;;4937672;29;20807;-83
2022/03/24 00:32:22;;;;;;;12.55;7.45;;;1.70;99.90;;;;;;4938571;29;20439;-84
2022/03/24 00:34:50;;;;;;;12.77;7.90;;;1.80;99.90;;;;;;4955698;29;20396;-84
2022/03/24 00:37:18;;;;;;;13.00;8.07;;;1.80;99.90;;;;;;4924779;29;20496;-83
2022/03/24 00:39:48;;;;;;;13.73;8.17;;;1.70;99.90;;;;;;4945267;29;20790;-83
2022/03/24 00:42:16;;;;;;;13.27;8.05;;;1.70;99.90;;;;;;4954363;29;20405;-84
2022/03/24 00:44:44;;;;;;;13.40;8.10;;;1.70;99.90;;;;;;4954291;29;20400;-84
2022/03/24 00:47:16;;;;;;;12.35;8.05;;;1.70;99.90;;;;;;4954240;29;20479;-83
2022/03/24 00:49:47;;;;;;;14.45;7.90;;;1.70;99.90;;;;;;4952384;29;20419;-83
2022/03/24 00:52:17;;;;;;;14.10;8.32;;;1.70;99.90;;;;;;4954412;29;20435;-84
2022/03/24 00:54:46;;;;;;;15.50;8.75;;;1.60;99.90;;;;;;4954048;29;20475;-84
2022/03/24 00:57:16;;;;;;;14.90;8.43;;;1.70;99.90;;;;;;4938345;29;20736;-83
2022/03/24 00:59:44;;;;;;;14.68;8.52;;;1.60;99.90;;;;;;4952009;28;20424;-83
2022/03/24 01:02:11;;;;;;;14.82;8.40;;;1.60;99.90;;;;;;4953956;29;20777;-83
2022/03/24 01:04:41;;;;;;;16.20;8.73;;;1.50;99.90;;;;;;4938129;29;20412;-83
2022/03/24 01:07:09;;;;;;;15.27;8.77;;;1.50;99.90;;;;;;4938928;29;20390;-84
2022/03/24 01:09:37;;;;;;;14.45;8.60;;;1.60;99.90;;;;;;4944754;29;20410;-84
2022/03/24 01:12:05;;;;;;;14.05;7.88;;;1.60;99.90;;;;;;4936931;29;20410;-83
2022/03/24 01:14:35;;;;;;;15.45;8.65;;;1.70;99.90;;;;;;4954939;29;20449;-84
2022/03/24 01:17:07;;;;;;;14.40;8.43;;;1.70;99.90;;;;;;4949259;29;20420;-83
2022/03/24 01:19:35;;;;;;;14.18;8.32;;;1.70;99.90;;;;;;4952051;29;20414;-83
2022/03/24 01:22:03;;;;;;;14.88;8.52;;;1.70;99.90;;;;;;4938139;29;20557;-84
2022/03/24 01:24:31;;;;;;;15.65;8.23;;;1.60;99.90;;;;;;4953887;29;20428;-83
2022/03/24 01:26:59;;;;;;;13.63;8.15;;;1.50;99.90;;;;;;4953429;29;20412;-84
2022/03/24 01:29:27;;;;;;;17.27;9.10;;;1.60;99.90;;;;;;4951579;29;20408;-83
2022/03/24 01:31:54;;;;;;;17.67;9.83;;;1.60;99.90;;;;;;4937576;29;20396;-84
2022/03/24 01:34:22;;;;;;;16.20;8.48;;;1.60;99.90;;;;;;4953441;29;20400;-84
2022/03/24 01:36:53;;;;;;;17.98;9.40;;;1.60;99.90;;;;;;4953445;29;20908;-83
2022/03/24 01:39:23;;;;;;;15.55;8.60;;;1.50;99.90;;;;;;4951666;29;20478;-83
2022/03/24 01:41:51;;;;;;;15.55;8.63;;;1.60;99.90;;;;;;4953145;29;20392;-83
2022/03/24 01:44:20;;;;;;;16.08;8.88;;;1.50;99.90;;;;;;4953236;29;20401;-83
2022/03/24 01:47:05;;;;;;;16.02;8.82;;;1.60;99.90;;;;;;4953094;29;20482;-84
2022/03/24 01:49:36;;;;;;;16.83;9.67;;;1.50;99.90;;;;;;4951103;29;20914;-84
2022/03/24 01:52:14;;;;;;;15.93;9.30;;;1.60;99.90;;;;;;4937310;29;20416;-84
2022/03/24 01:54:48;;;;;;;16.23;9.75;;;1.50;99.90;;;;;;4937462;29;20585;-84
2022/03/24 01:57:18;;;;;;;16.23;9.88;;;1.50;99.90;;;;;;4952844;29;20404;-83
2022/03/24 01:59:45;;;;;;;17.83;9.40;;;1.60;99.90;;;;;;4951100;29;20821;-84
2022/03/24 02:02:15;;;;;;;15.77;8.43;;;1.50;99.90;;;;;;4952772;29;20914;-84
2022/03/24 02:04:43;;;;;;;15.88;9.05;;;1.60;99.90;;;;;;4954066;28;20490;-83
2022/03/24 02:07:14;;;;;;;16.77;9.65;;;1.60;99.90;;;;;;4952692;29;20475;-84
2022/03/24 02:09:44;;;;;;;17.07;9.83;;;1.70;99.90;;;;;;4950736;29;20412;-84
2022/03/24 02:12:14;;;;;;;15.63;9.20;;;1.70;99.90;;;;;;4937280;29;20492;-84
2022/03/24 02:14:43;;;;;;;18.15;9.90;;;1.60;99.90;;;;;;4952701;29;20447;-84
2022/03/24 02:17:11;;;;;;;17.17;9.18;;;1.60;99.90;;;;;;4932512;29;20396;-84
2022/03/24 02:19:40;;;;;;;15.45;9.38;;;1.60;99.90;;;;;;4935792;29;20416;-84
2022/03/24 02:22:15;;;;;;;16.37;9.37;;;1.60;99.90;;;;;;4952179;28;20403;-84
2022/03/24 02:24:45;;;;;;;16.63;9.60;;;1.60;99.90;;;;;;4952495;29;20489;-84
2022/03/24 02:27:13;;;;;;;18.50;9.80;;;1.60;99.90;;;;;;4952612;29;20404;-84
2022/03/24 02:29:41;;;;;;;17.13;9.82;;;1.60;99.90;;;;;;4952450;28;20436;-84
2022/03/24 02:32:11;;;;;;;16.17;9.45;;;1.50;99.90;;;;;;4952264;29;20455;-84
2022/03/24 02:34:47;;;;;;;15.40;9.02;;;1.50;99.90;;;;;;4952058;29;20413;-84
2022/03/24 02:37:19;;;;;;;16.15;8.98;;;1.50;99.90;;;;;;4952424;29;20405;-84
2022/03/24 02:39:49;;;;;;;17.13;9.43;;;1.50;99.90;;;;;;4940328;29;20505;-84
2022/03/24 02:42:21;;;;;;;16.90;10.05;;;1.40;99.90;;;;;;4917554;29;20398;-84
2022/03/24 02:44:53;;;;;;;17.27;9.77;;;1.50;99.90;;;;;;4933251;29;20402;-84
2022/03/24 02:47:23;;;;;;;19.93;10.20;;;1.60;99.90;;;;;;4934413;29;20429;-84
2022/03/24 02:49:55;;;;;;;16.33;9.40;;;1.50;99.90;;;;;;4934979;29;20763;-84
2022/03/24 02:52:24;;;;;;;16.30;9.30;;;1.50;99.90;;;;;;4952401;29;20455;-84
2022/03/24 02:54:51;;;;;;;16.80;9.93;;;1.50;99.90;;;;;;4953558;28;20402;-84
2022/03/24 02:57:19;;;;;;;17.93;10.77;;;1.40;99.90;;;;;;4952130;29;20472;-84
2022/03/24 02:59:48;;;;;;;18.33;10.50;;;1.40;99.90;;;;;;4950309;29;20429;-84
2022/03/24 03:02:17;;;;;;;18.93;10.03;;;1.40;99.90;;;;;;4953115;29;20397;-84
2022/03/24 03:04:51;;;;;;;16.10;10.00;;;1.30;99.90;;;;;;4953373;28;20395;-84
2022/03/24 03:07:20;;;;;;;19.00;10.43;;;1.40;99.90;;;;;;4949210;28;20392;-84
2022/03/24 03:09:49;;;;;;;17.47;10.23;;;1.50;99.90;;;;;;4950205;29;20475;-84
2022/03/24 03:12:16;;;;;;;17.65;10.18;;;1.40;99.90;;;;;;4953206;29;20449;-84
2022/03/24 03:14:46;;;;;;;16.98;10.55;;;1.30;99.90;;;;;;4952057;29;20404;-84
2022/03/24 03:17:15;;;;;;;20.23;10.70;;;1.30;99.90;;;;;;4947968;29;20455;-83
2022/03/24 03:19:45;;;;;;;19.23;10.68;;;1.30;99.90;;;;;;4951469;28;20443;-84
2022/03/24 03:22:15;;;;;;;18.15;11.20;;;1.20;99.90;;;;;;4953109;29;20392;-84
2022/03/24 03:24:42;;;;;;;18.48;10.38;;;1.30;99.90;;;;;;4953127;29;20385;-83
2022/03/24 03:27:12;;;;;;;18.40;10.73;;;1.30;99.90;;;;;;4953212;29;20396;-84
2022/03/24 03:29:41;;;;;;;19.58;11.32;;;1.40;99.90;;;;;;4951473;29;20416;-85
2022/03/24 03:32:10;;;;;;;19.65;11.30;;;1.50;99.90;;;;;;4953147;28;20400;-84
2022/03/24 03:34:40;;;;;;;18.00;10.77;;;1.60;99.90;;;;;;4954386;28;20406;-84
2022/03/24 03:37:08;;;;;;;17.92;10.10;;;1.60;99.90;;;;;;4956112;28;20428;-84
2022/03/24 03:39:36;;;;;;;19.48;10.63;;;1.60;99.90;;;;;;4941816;29;20497;-83
2022/03/24 03:42:04;;;;;;;19.73;11.15;;;1.50;99.90;;;;;;4935722;29;20413;-83
2022/03/24 03:44:32;;;;;;;18.10;11.00;;;1.50;99.90;;;;;;4967441;28;20404;-83
2022/03/24 03:47:01;;;;;;;16.52;10.38;;;1.50;99.90;;;;;;4947121;29;20698;-83
2022/03/24 03:49:29;;;;;;;18.50;9.80;;;1.60;99.90;;;;;;4941923;29;20919;-84
2022/03/24 03:52:16;;;;;;;19.10;11.02;;;1.50;99.90;;;;;;4936143;29;20401;-83
2022/03/24 03:54:44;;;;;;;17.20;10.47;;;1.40;99.90;;;;;;4937373;29;20398;-84
2022/03/24 03:57:12;;;;;;;16.75;9.77;;;1.40;99.90;;;;;;4936082;29;20405;-83
2022/03/24 03:59:40;;;;;;;18.50;11.32;;;1.30;99.90;;;;;;4943566;29;20412;-84
2022/03/24 04:02:07;;;;;;;18.10;10.00;;;1.30;99.90;;;;;;4954985;29;20760;-84
2022/03/24 04:04:35;;;;;;;17.70;10.68;;;1.40;99.90;;;;;;4939242;29;20404;-84
2022/03/24 04:07:03;;;;;;;20.05;11.25;;;1.30;99.90;;;;;;4956727;28;20424;-84
2022/03/24 04:09:30;;;;;;;20.95;11.13;;;1.40;99.90;;;;;;4954576;28;20467;-83
2022/03/24 04:11:58;;;;;;;21.43;11.70;;;1.30;99.90;;;;;;4956254;29;20396;-83
2022/03/24 04:14:26;;;;;;;20.10;11.35;;;1.30;99.90;;;;;;4956110;28;20404;-84
2022/03/24 04:16:57;;;;;;;18.67;11.80;;;1.30;99.90;;;;;;4946123;29;20407;-83
2022/03/24 04:19:25;;;;;;;18.75;11.30;;;1.20;99.90;;;;;;4954451;28;20478;-84
2022/03/24 04:21:53;;;;;;;19.63;12.07;;;1.20;99.90;;;;;;4956040;29;20392;-84
2022/03/24 04:24:21;;;;;;;19.83;11.50;;;1.40;99.90;;;;;;4956018;28;20476;-84
2022/03/24 04:26:48;;;;;;;20.58;12.52;;;1.40;99.90;;;;;;4954594;29;20728;-84
2022/03/24 04:29:16;;;;;;;19.35;11.85;;;1.40;99.90;;;;;;4947538;29;20568;-84
2022/03/24 04:31:44;;;;;;;18.25;11.18;;;1.30;99.90;;;;;;4954751;29;20979;-83
2022/03/24 04:34:12;;;;;;;19.60;12.07;;;1.30;99.90;;;;;;4938840;29;20404;-84
2022/03/24 04:36:40;;;;;;;19.23;12.57;;;1.30;99.90;;;;;;4954454;29;20447;-84
2022/03/24 04:39:08;;;;;;;20.95;12.57;;;1.40;99.90;;;;;;4952199;29;20409;-83
2022/03/24 04:41:35;;;;;;;19.07;11.47;;;1.40;99.90;;;;;;4955660;28;20392;-83
2022/03/24 04:44:03;;;;;;;18.75;11.50;;;1.40;99.90;;;;;;4955614;28;20415;-83
2022/03/24 04:46:31;;;;;;;20.73;12.07;;;1.30;99.90;;;;;;4955640;28;20395;-84
2022/03/24 04:48:59;;;;;;;19.02;12.05;;;1.20;99.90;;;;;;4952980;29;20408;-83
2022/03/24 04:51:26;;;;;;;22.90;13.65;;;1.10;99.90;;;;;;4946050;28;20404;-83
2022/03/24 04:53:54;;;;;;;20.98;13.73;;;1.10;99.90;;;;;;4944223;29;20401;-83
2022/03/24 04:56:22;;;;;;;21.37;13.37;;;1.20;99.90;;;;;;4954097;29;20432;-83
2022/03/24 04:58:50;;;;;;;21.10;13.13;;;1.20;99.90;;;;;;4951772;29;20412;-84
2022/03/24 05:01:18;;;;;;;20.77;12.07;;;1.10;99.90;;;;;;4954014;29;20447;-84
2022/03/24 05:03:46;;;;;;;21.67;13.45;;;1.20;99.90;;;;;;4931112;29;20404;-83
2022/03/24 05:06:15;;;;;;;21.33;13.35;;;1.10;99.90;;;;;;4949935;28;20459;-83
2022/03/24 05:08:42;;;;;;;19.80;12.88;;;1.10;99.90;;;;;;4949255;29;20417;-84
2022/03/24 05:11:10;;;;;;;20.05;12.32;;;1.10;99.90;;;;;;4947342;29;20412;-83
2022/03/24 05:13:38;;;;;;;24.02;14.32;;;1.10;99.90;;;;;;4952597;29;20442;-84
2022/03/24 05:16:08;;;;;;;21.50;12.77;;;1.10;99.90;;;;;;4953883;29;20407;-84
2022/03/24 05:18:38;;;;;;;20.80;13.43;;;1.10;99.90;;;;;;4953096;29;20491;-84
2022/03/24 05:21:05;;;;;;;21.98;13.55;;;1.10;99.90;;;;;;4951987;29;20404;-84
2022/03/24 05:23:33;;;;;;;21.92;14.50;;;1.10;99.90;;;;;;4954871;28;20739;-84
2022/03/24 05:26:01;;;;;;;22.00;13.65;;;1.10;99.90;;;;;;4948804;28;20878;-84
2022/03/24 05:28:28;;;;;;;21.27;13.50;;;1.10;99.90;;;;;;4945094;29;20403;-83
2022/03/24 05:30:56;;;;;;;20.55;12.98;;;1.10;99.90;;;;;;4954619;29;20393;-83
2022/03/24 05:33:24;;;;;;;22.48;13.57;;;1.00;99.90;;;;;;4937665;29;20974;-84
2022/03/24 05:35:52;;;;;;;23.10;13.95;;;1.00;99.90;;;;;;4937608;29;20930;-84
2022/03/24 05:38:20;;;;;;;22.23;13.27;;;1.10;99.90;;;;;;4937356;29;20396;-82
2022/03/24 05:40:48;;;;;;;23.55;13.20;;;1.10;99.90;;;;;;4952569;29;20396;-84
2022/03/24 05:43:16;;;;;;;22.58;13.85;;;1.10;99.90;;;;;;4935498;29;20416;-84
2022/03/24 05:45:46;;;;;;;21.08;13.20;;;1.10;99.90;;;;;;4953128;29;20907;-83
2022/03/24 05:48:14;;;;;;;22.97;13.57;;;1.10;99.90;;;;;;4954363;28;20448;-84
2022/03/24 05:51:02;;;;;;;23.17;13.40;;;1.10;99.90;;;;;;4953036;29;20755;-83
2022/03/24 05:53:32;;;;;;;23.17;14.05;;;1.10;99.90;;;;;;4954357;28;20403;-83
2022/03/24 05:56:00;;;;;;;22.60;13.43;;;1.10;99.90;;;;;;4952970;29;20404;-84
2022/03/24 05:58:28;;;;;;;21.60;13.45;;;1.10;99.90;;;;;;4936407;29;20396;-84
2022/03/24 06:00:56;;;;;;;25.65;15.10;;;1.20;99.90;;;;;;4952147;29;20408;-84
2022/03/24 06:03:25;;;;;;;23.83;15.43;;;1.20;99.90;;;;;;4952623;29;20411;-84
2022/03/24 06:05:53;;;;;;;24.10;14.93;;;1.20;99.90;;;;;;4936680;29;20400;-85
2022/03/24 06:08:21;;;;;;;25.30;14.90;;;1.20;99.90;;;;;;4952861;29;20491;-84
2022/03/24 06:10:49;;;;;;;22.67;15.20;;;1.20;99.90;;;;;;4936908;29;20396;-85
2022/03/24 06:13:16;;;;;;;25.77;15.55;;;1.20;99.90;;;;;;4952832;29;20479;-84
2022/03/24 06:15:45;;;;;;;28.07;16.23;;;1.20;99.90;;;;;;4952618;29;20984;-84
2022/03/24 06:18:15;;;;;;;24.90;16.08;;;1.20;99.90;;;;;;4952636;29;20487;-84
2022/03/24 06:20:49;;;;;;;24.70;15.82;;;1.20;99.90;;;;;;4937535;29;20496;-85
2022/03/24 06:23:16;;;;;;;26.55;15.95;;;1.30;99.90;;;;;;4952716;28;20428;-84
2022/03/24 06:25:44;;;;;;;26.17;16.27;;;1.30;99.90;;;;;;4952525;29;20396;-84
2022/03/24 06:28:12;;;;;;;26.80;16.00;;;1.30;99.90;;;;;;4952618;29;20886;-84
2022/03/24 06:30:40;;;;;;;25.75;16.10;;;1.40;99.90;;;;;;4936699;29;20819;-85
2022/03/24 06:33:07;;;;;;;24.58;15.45;;;1.40;99.90;;;;;;4952494;29;20400;-85
2022/03/24 06:35:35;;;;;;;25.40;15.38;;;1.40;99.90;;;;;;4936782;29;20404;-85
2022/03/24 06:38:03;;;;;;;24.38;15.75;;;1.40;99.90;;;;;;4952489;29;20420;-84
2022/03/24 06:40:31;;;;;;;25.58;15.57;;;1.40;99.90;;;;;;4952485;29;20408;-84
2022/03/24 06:42:59;;;;;;;25.00;15.17;;;1.40;99.90;;;;;;4953966;29;20884;-84
2022/03/24 06:45:27;;;;;;;24.05;15.27;;;1.40;99.90;;;;;;4952450;28;20403;-84
2022/03/24 06:47:54;;;;;;;24.85;16.23;;;1.40;99.90;;;;;;4952391;28;20404;-83
2022/03/24 06:50:22;;;;;;;26.07;15.40;;;1.40;99.90;;;;;;4953605;29;20455;-83
2022/03/24 06:52:50;;;;;;;25.17;15.30;;;1.40;99.90;;;;;;4936658;29;20396;-84
2022/03/24 06:55:17;;;;;;;26.50;16.17;;;1.50;99.90;;;;;;4936562;29;20414;-84
2022/03/24 06:57:46;;;;;;;23.42;15.23;;;1.50;99.90;;;;;;4952203;29;20400;-84
2022/03/24 07:00:15;;;;;;;25.38;15.82;;;1.50;99.90;;;;;;4952144;29;20416;-84
2022/03/24 07:02:43;;;;;;;26.02;15.65;;;1.50;99.90;;;;;;4952111;29;20495;-84
2022/03/24 07:05:12;;;;;;;24.60;15.53;;;1.60;99.90;;;;;;4936365;29;20443;-84
2022/03/24 07:07:40;;;;;;;26.20;16.27;;;1.60;99.90;;;;;;4936425;29;20403;-84
2022/03/24 07:10:09;;;;;;;26.08;14.40;;;1.60;99.90;;;;;;4956095;28;20487;-84
2022/03/24 07:12:37;;;;;;;25.17;15.25;;;1.70;99.90;;;;;;4956069;29;20443;-84
2022/03/24 07:15:08;;;;;;;24.25;15.50;;;1.70;99.90;;;;;;4940149;29;20404;-84
2022/03/24 07:17:36;;;;;;;22.95;15.13;;;1.80;99.90;;;;;;4940192;29;20412;-84
2022/03/24 07:20:05;;;;;;;22.58;15.00;;;1.80;99.90;;;;;;4940067;29;20407;-85
2022/03/24 07:22:37;;;;;;;23.77;15.38;;;1.80;99.90;;;;;;4957161;28;20916;-85
2022/03/24 07:25:07;;;;;;;24.40;15.32;;;1.80;99.90;;;;;;4955882;29;20393;-85
2022/03/24 07:27:34;;;;;;;25.58;16.13;;;1.90;99.90;;;;;;4940049;29;20487;-85
2022/03/24 07:30:03;;;;;;;26.10;16.05;;;1.80;99.90;;;;;;4955816;29;20432;-84
2022/03/24 07:32:32;;;;;;;26.43;16.27;;;1.90;99.90;;;;;;4939899;29;20399;-84
2022/03/24 07:35:00;;;;;;;28.70;17.60;;;1.90;99.90;;;;;;4939804;29;20396;-84
2022/03/24 07:37:28;;;;;;;25.63;16.65;;;1.90;99.90;;;;;;4939799;29;20396;-85
2022/03/24 07:39:56;;;;;;;26.08;16.58;;;2.00;99.90;;;;;;4955596;28;20775;-84
2022/03/24 07:42:24;;;;;;;24.60;16.15;;;2.00;99.90;;;;;;4956756;29;20398;-84
2022/03/24 07:44:52;;;;;;;25.75;16.75;;;2.00;99.90;;;;;;4955538;29;20591;-84
2022/03/24 07:47:20;;;;;;;26.88;16.05;;;2.10;99.90;;;;;;4955611;29;20400;-85
2022/03/24 07:49:48;;;;;;;27.02;15.68;;;2.10;99.90;;;;;;4955330;29;20483;-84
2022/03/24 07:52:15;;;;;;;23.40;15.15;;;2.10;99.90;;;;;;4939490;29;20396;-84
2022/03/24 07:54:55;;;;;;;26.02;16.73;;;2.20;99.90;;;;;;4939732;29;20412;-84
2022/03/24 07:57:27;;;;;;;25.15;16.63;;;2.20;99.90;;;;;;4955437;29;20404;-85
2022/03/24 07:59:55;;;;;;;24.85;15.65;;;2.30;99.90;;;;;;4939276;29;20495;-85
2022/03/24 08:02:23;;;;;;;23.48;15.68;;;2.30;99.90;;;;;;4955183;29;20408;-84
2022/03/24 08:04:52;;;;;;;27.95;18.15;;;2.40;99.90;;;;;;4939593;29;20396;-84
2022/03/24 08:07:21;;;;;;;26.38;17.10;;;2.40;99.90;;;;;;4956477;29;20395;-85
2022/03/24 08:09:50;;;;;;;26.65;17.05;;;2.50;99.90;;;;;;4955017;29;20456;-84
2022/03/24 08:12:18;;;;;;;27.05;16.88;;;2.50;99.90;;;;;;4939196;29;20910;-85
2022/03/24 08:14:46;;;;;;;25.33;16.65;;;2.60;99.90;;;;;;4939233;29;20941;-85
2022/03/24 08:17:13;;;;;;;26.13;17.17;;;2.60;99.90;;;;;;4954934;29;20396;-84
2022/03/24 08:19:41;;;;;;;26.70;16.58;;;2.70;99.90;;;;;;4955449;28;20403;-85
2022/03/24 08:22:09;;;;;;;24.60;15.77;;;2.70;99.90;;;;;;4955983;29;20388;-84
2022/03/24 08:24:36;;;;;;;25.33;16.13;;;2.80;99.90;;;;;;4954945;29;20946;-85
2022/03/24 08:27:04;;;;;;;24.73;15.98;;;2.90;99.90;;;;;;4956020;28;20395;-85
2022/03/24 08:29:32;;;;;;;24.98;16.83;;;2.80;99.90;;;;;;4938993;29;20404;-85
2022/03/24 08:31:59;;;;;;;24.40;15.30;;;2.90;99.90;;;;;;4938805;29;20409;-85
2022/03/24 08:34:28;;;;;;;25.13;15.98;;;2.90;99.90;;;;;;4955775;29;20400;-85
2022/03/24 08:36:56;;;;;;;22.50;14.55;;;2.90;99.90;;;;;;4954617;29;20957;-85
2022/03/24 08:39:24;;;;;;;24.77;15.57;;;2.90;99.90;;;;;;4954569;29;20412;-85
2022/03/24 08:41:53;;;;;;;23.67;14.07;;;3.00;99.90;;;;;;4954534;29;20402;-85
2022/03/24 08:44:20;;;;;;;23.90;14.37;;;3.10;99.90;;;;;;4938686;29;20840;-85
2022/03/24 08:46:48;;;;;;;25.75;14.98;;;3.10;99.90;;;;;;4955615;28;20455;-85
2022/03/24 08:49:18;;;;;;;23.08;14.13;;;3.20;99.90;;;;;;4938573;29;20495;-84
2022/03/24 08:51:46;;;;;;;23.67;14.77;;;3.20;99.90;;;;;;4938471;29;20408;-84
2022/03/24 08:54:14;;;;;;;22.15;13.95;;;3.30;99.90;;;;;;4955473;29;20389;-85
2022/03/24 08:56:41;;;;;;;24.77;15.13;;;3.40;99.90;;;;;;4955449;29;20399;-85
2022/03/24 08:59:09;;;;;;;21.17;13.57;;;3.50;99.90;;;;;;4953833;29;20409;-85
2022/03/24 09:01:38;;;;;;;23.25;14.05;;;3.50;99.90;;;;;;4954093;29;20516;-85
2022/03/24 09:04:06;;;;;;;24.13;15.18;;;3.50;99.90;;;;;;4953995;29;20404;-85
2022/03/24 09:06:36;;;;;;;23.73;14.30;;;3.50;99.90;;;;;;4954105;29;20483;-85
2022/03/24 09:09:05;;;;;;;23.38;14.48;;;3.50;99.90;;;;;;4955243;29;20392;-85
2022/03/24 09:11:33;;;;;;;23.10;15.35;;;3.60;99.90;;;;;;4955420;29;20799;-84
2022/03/24 09:14:01;;;;;;;24.38;15.50;;;3.60;99.90;;;;;;4953860;29;20910;-85
2022/03/24 09:16:28;;;;;;;23.98;14.32;;;3.60;99.90;;;;;;4955099;29;20958;-85
2022/03/24 09:18:56;;;;;;;24.98;15.10;;;3.70;99.90;;;;;;4953844;29;20400;-85
2022/03/24 09:21:24;;;;;;;23.50;15.35;;;3.80;99.90;;;;;;4955145;28;20435;-85
2022/03/24 09:23:52;;;;;;;23.83;15.27;;;3.90;99.90;;;;;;4938096;29;20401;-85
2022/03/24 09:26:19;;;;;;;22.38;14.95;;;3.90;99.90;;;;;;4953742;29;20408;-85
2022/03/24 09:28:59;;;;;;;23.55;14.82;;;4.00;99.90;;;;;;4953652;29;20407;-84
2022/03/24 09:31:26;;;;;;;23.83;15.43;;;4.10;99.90;;;;;;4952992;28;20491;-85
2022/03/24 09:33:54;;;;;;;23.95;15.65;;;4.10;99.90;;;;;;4954489;28;20400;-85
2022/03/24 09:36:22;;;;;;;21.63;14.88;;;4.10;99.90;;;;;;4953683;29;20392;-85
2022/03/24 09:38:50;;;;;;;23.83;15.65;;;4.20;99.90;;;;;;4953428;29;20740;-85
2022/03/24 09:41:19;;;;;;;23.10;14.77;;;4.20;99.90;;;;;;4954572;28;20491;-85
2022/03/24 09:43:48;;;;;;;24.60;16.20;;;4.30;99.90;;;;;;4954678;28;20401;-85
2022/03/24 09:46:18;;;;;;;25.60;15.85;;;4.30;99.90;;;;;;4954614;29;20467;-85
2022/03/24 09:48:46;;;;;;;22.67;15.38;;;4.20;99.90;;;;;;4953406;29;20416;-85
2022/03/24 09:51:15;;;;;;;24.95;16.13;;;4.40;99.90;;;;;;4953244;29;20399;-85
2022/03/24 09:53:43;;;;;;;24.98;15.10;;;4.50;99.90;;;;;;4937287;29;20737;-84
2022/03/24 09:56:11;;;;;;;25.58;16.65;;;4.70;99.90;;;;;;4937458;29;20510;-84
2022/03/24 09:58:39;;;;;;;24.90;15.88;;;4.70;99.90;;;;;;4952803;29;20415;-85
2022/03/24 10:01:07;;;;;;;24.17;15.82;;;4.80;99.90;;;;;;4953155;29;20490;-85
2022/03/24 10:03:37;;;;;;;22.45;15.60;;;4.80;99.90;;;;;;4937574;29;20548;-85
2022/03/24 10:06:07;;;;;;;22.73;15.23;;;4.80;99.90;;;;;;4952924;29;20396;-84
2022/03/24 10:08:37;;;;;;;23.90;15.60;;;4.90;99.90;;;;;;4953037;29;20753;-84
2022/03/24 10:11:09;;;;;;;23.40;15.55;;;5.00;99.90;;;;;;4937137;29;20418;-85
2022/03/24 10:13:55;;;;;;;23.38;14.80;;;5.00;99.90;;;;;;4953068;29;20859;-85
2022/03/24 10:16:35;;;;;;;24.65;15.98;;;5.20;99.90;;;;;;4937021;29;20463;-85
2022/03/24 10:19:14;;;;;;;23.70;15.85;;;5.20;99.90;;;;;;4952795;29;20400;-85
2022/03/24 10:21:47;;;;;;;22.92;15.52;;;5.20;99.90;;;;;;4936876;29;20410;-85
2022/03/24 10:24:15;;;;;;;23.58;15.57;;;5.20;99.90;;;;;;4937026;29;20424;-84
2022/03/24 10:27:11;;;;;;;23.58;15.30;;;5.20;99.90;;;;;;4952625;29;20396;-85
2022/03/24 10:29:39;;;;;;;20.77;14.52;;;5.20;99.90;;;;;;4935210;29;20397;-85
2022/03/24 10:32:15;;;;;;;22.08;14.60;;;5.40;99.90;;;;;;4952634;29;20439;-85
2022/03/24 10:34:50;;;;;;;22.07;14.63;;;5.60;99.90;;;;;;4952616;29;20759;-85
2022/03/24 10:37:19;;;;;;;20.55;13.50;;;5.60;99.90;;;;;;4952619;29;20392;-85
2022/03/24 10:40:06;;;;;;;20.90;13.45;;;5.70;99.90;;;;;;4952356;29;20396;-85
2022/03/24 10:42:36;;;;;;;22.95;13.80;;;5.90;99.90;;;;;;4936659;28;20396;-85
2022/03/24 10:45:05;;;;;;;21.05;13.55;;;5.90;99.90;;;;;;4936520;29;20404;-84
2022/03/24 10:47:54;;;;;;;20.05;12.90;;;5.90;99.90;;;;;;4936445;29;20404;-84
2022/03/24 10:50:24;;;;;;;20.52;12.80;;;5.80;99.90;;;;;;4953599;28;20680;-84
2022/03/24 10:52:53;;;;;;;20.88;13.73;;;5.90;99.90;;;;;;4953541;29;20396;-84
2022/03/24 10:55:39;;;;;;;20.13;12.85;;;5.80;99.90;;;;;;4953488;28;20502;-84
2022/03/24 10:58:11;;;;;;;20.17;13.10;;;5.90;99.90;;;;;;4936515;29;20886;-85
2022/03/24 11:00:41;;;;;;;20.65;13.30;;;6.20;99.90;;;;;;4952037;29;20426;-84
2022/03/24 11:03:10;;;;;;;21.17;13.27;;;6.30;99.90;;;;;;4953444;28;20407;-84
2022/03/24 11:05:38;;;;;;;20.80;12.82;;;6.40;99.90;;;;;;4952310;29;20467;-85
2022/03/24 11:08:08;;;;;;;20.60;12.68;;;6.40;99.90;;;;;;4953320;29;20412;-85
2022/03/24 11:10:48;;;;;;;20.65;12.45;;;6.60;99.90;;;;;;4953312;29;20463;-84
2022/03/24 11:13:26;;;;;;;19.35;12.70;;;6.50;99.90;;;;;;4952125;29;20400;-84
2022/03/24 11:15:54;;;;;;;20.48;13.45;;;6.50;99.90;;;;;;4952204;29;20400;-84
2022/03/24 11:18:25;;;;;;;19.00;12.93;;;6.50;99.90;;;;;;4952166;29;20490;-84
2022/03/24 11:20:59;;;;;;;20.35;12.35;;;6.60;99.90;;;;;;4951903;29;20850;-84
2022/03/24 11:23:29;;;;;;;18.37;11.97;;;6.60;99.90;;;;;;4952010;29;20404;-84
2022/03/24 11:25:58;;;;;;;19.75;12.80;;;6.60;99.90;;;;;;4951997;29;20411;-84
2022/03/24 11:28:26;;;;;;;22.05;13.02;;;6.50;99.90;;;;;;4946621;29;20916;-85
2022/03/24 11:30:54;;;;;;;19.35;12.55;;;6.60;99.90;;;;;;4950956;29;20400;-84
2022/03/24 11:33:21;;;;;;;17.48;11.43;;;6.70;99.90;;;;;;4940096;29;20402;-84
2022/03/24 11:35:51;;;;;;;17.52;11.45;;;7.00;99.90;;;;;;4917060;29;20405;-85
2022/03/24 11:38:20;;;;;;;18.27;11.60;;;7.30;99.90;;;;;;4932952;29;20398;-85
2022/03/24 11:40:49;;;;;;;18.40;11.38;;;7.30;99.90;;;;;;4933859;29;20967;-85
2022/03/24 11:43:20;;;;;;;18.20;11.43;;;7.30;99.90;;;;;;4932790;29;20449;-85
2022/03/24 11:46:09;;;;;;;19.52;11.73;;;7.30;99.90;;;;;;4917051;29;20430;-85
2022/03/24 11:48:40;;;;;;;17.60;11.05;;;7.50;99.90;;;;;;4933897;29;20402;-85
2022/03/24 11:51:20;;;;;;;16.67;10.80;;;7.70;99.90;;;;;;4932618;29;20412;-85
2022/03/24 11:54:04;;;;;;;15.67;10.43;;;7.80;99.90;;;;;;4932655;29;20400;-84
2022/03/24 11:56:32;;;;;;;13.90;9.17;;;7.90;99.90;;;;;;4941877;29;20429;-85
2022/03/24 11:59:00;;;;;;;15.80;9.98;;;8.00;99.90;;;;;;4935545;29;20429;-85
2022/03/24 12:01:31;;;;;;;13.88;9.15;;;7.70;99.90;;;;;;4938599;29;20833;-84
2022/03/24 12:04:09;;;;;;;15.35;8.63;;;7.60;99.90;;;;;;4939420;29;20404;-85
2022/03/24 12:06:50;;;;;;;13.13;8.30;;;7.50;99.90;;;;;;4954968;29;20400;-84
2022/03/24 12:09:34;;;;;;;15.20;8.80;;;7.60;99.90;;;;;;4942529;29;20408;-84
2022/03/24 12:12:02;;;;;;;13.33;8.60;;;7.50;99.90;;;;;;4935540;29;20434;-84
2022/03/24 12:14:30;;;;;;;15.23;8.57;;;7.70;99.90;;;;;;4936832;29;20398;-85
2022/03/24 12:17:15;;;;;;;15.40;8.50;;;8.00;99.90;;;;;;4948155;29;20408;-85
2022/03/24 12:19:51;;;;;;;13.77;8.17;;;8.20;99.90;;;;;;4954584;29;20527;-84
2022/03/24 12:22:25;;;;;;;13.48;8.30;;;8.20;99.90;;;;;;4954579;29;20467;-84
2022/03/24 12:25:14;;;;;;;13.60;8.10;;;8.00;99.90;;;;;;4955323;29;20461;-85
2022/03/24 12:28:20;;;;;;;13.30;8.02;;;8.00;99.90;;;;;;4935262;29;20425;-84
2022/03/24 12:31:06;;;;;;;11.40;7.50;;;7.90;99.90;;;;;;4941680;29;20750;-84
2022/03/24 12:33:37;;;;;;;14.10;7.30;;;7.70;99.90;;;;;;4954355;29;20405;-84
2022/03/24 12:36:06;;;;;;;10.40;5.97;;;7.60;99.90;;;;;;4941021;29;20429;-85
2022/03/24 12:38:34;;;;;;;11.75;6.57;;;7.40;99.90;;;;;;4919555;29;20402;-85
2022/03/24 12:41:11;;;;;;;9.98;6.65;;;7.30;99.90;;;;;;4919516;29;20418;-85
2022/03/24 12:43:57;;;;;;;11.43;6.00;;;7.20;99.90;;;;;;4936401;29;20390;-85
2022/03/24 12:46:35;;;;;;;11.70;6.30;;;7.20;99.90;;;;;;4949636;29;20419;-85
2022/03/24 12:49:11;;;;;;;9.73;5.93;;;7.20;99.90;;;;;;4954313;29;20908;-84
2022/03/24 12:52:05;;;;;;;9.43;6.15;;;7.20;99.90;;;;;;4954231;29;20407;-85
2022/03/24 12:54:48;;;;;;;9.98;6.07;;;7.30;99.90;;;;;;4955363;28;20392;-84